Time;durP1;ratioP1;P1;durP2;ratioP2;P2;SDS_P1;SDS_P2;PMS_P1;PMS_P2;Temp;Humidity;BMP_temperature;BMP_pressure;BME280_temperature;BME280_humidity;BME280_pressure;Samples;Min_cycle;Max_cycle;Signal;HPM_P1;HPM_P2
2021/11/12 00:13:59;;;;;;;;;;;;;;;16.51;62.14;101417.88;4951189;28;20047;-76
2021/11/12 00:16:28;;;;;;;10.45;2.90;;;;;;;16.54;62.06;101413.44;4951663;29;20009;-76
2021/11/12 00:18:56;;;;;;;11.07;2.60;;;;;;;16.59;61.99;101417.03;4950755;28;20050;-75
2021/11/12 00:21:24;;;;;;;10.80;2.40;;;;;;;16.64;61.99;101420.63;4950959;29;20415;-76
2021/11/12 00:23:52;;;;;;;11.95;3.08;;;;;;;16.72;61.88;101423.28;4950570;28;20047;-75
2021/11/12 00:26:21;;;;;;;13.15;3.28;;;;;;;16.74;61.99;101417.06;4950681;28;20074;-76
2021/11/12 00:28:53;;;;;;;14.20;2.67;;;;;;;16.74;61.93;101417.06;4960255;28;20060;-76
2021/11/12 00:31:29;;;;;;;13.23;2.92;;;;;;;16.78;61.96;101419.75;4956164;28;20142;-76
2021/11/12 00:36:50;;;;;;;9.27;2.50;;;;;;;16.72;62.42;101416.19;4945915;28;20078;-76
2021/11/12 00:39:22;;;;;;;7.63;2.10;;;;;;;16.73;62.58;101414.41;4951017;28;20058;-76
2021/11/12 00:41:58;;;;;;;9.60;2.80;;;;;;;16.76;62.67;101417.06;4951289;28;20066;-76
2021/11/12 00:44:31;;;;;;;10.65;2.67;;;;;;;16.79;62.57;101413.53;4950678;28;20043;-76
2021/11/12 00:47:02;;;;;;;10.18;2.70;;;;;;;16.78;62.70;101417.06;4950313;29;20039;-76
2021/11/12 00:49:35;;;;;;;37.38;5.68;;;;;;;16.80;62.74;101424.19;4949605;29;20483;-76
2021/11/12 00:52:05;;;;;;;11.77;3.03;;;;;;;16.80;62.90;101417.97;4949602;29;20090;-76
2021/11/12 00:54:33;;;;;;;11.70;3.55;;;;;;;16.74;62.91;101417.06;4933048;29;20415;-76
2021/11/12 00:57:01;;;;;;;16.90;3.33;;;;;;;16.71;62.99;101414.41;4950816;29;20075;-76
2021/11/12 00:59:28;;;;;;;12.93;2.75;;;;;;;16.68;63.09;101424.16;4949007;29;20122;-76
2021/11/12 01:01:57;;;;;;;8.77;2.85;;;;;;;16.66;63.34;101424.19;4948857;29;20039;-76
2021/11/12 01:04:25;;;;;;;13.73;3.08;;;;;;;16.67;63.24;101417.06;4950876;29;20051;-76
2021/11/12 01:06:54;;;;;;;12.10;3.63;;;;;;;16.71;63.25;101410.84;4949099;28;20123;-76
2021/11/12 01:09:23;;;;;;;12.70;2.80;;;;;;;16.72;63.32;101417.97;4949052;28;20040;-76
2021/11/12 01:11:52;;;;;;;8.68;2.53;;;;;;;16.74;63.34;101418.81;4950252;29;20415;-76
2021/11/12 01:14:23;;;;;;;17.10;3.30;;;;;;;16.74;63.35;101410.81;4948856;28;20102;-76
2021/11/12 01:16:51;;;;;;;13.07;3.58;;;;;;;16.77;63.30;101412.63;4949123;28;20043;-76
2021/11/12 01:19:19;;;;;;;10.40;2.63;;;;;;;16.72;63.35;101418.84;4950782;29;20044;-76
2021/11/12 01:21:47;;;;;;;12.07;2.78;;;;;;;16.70;63.29;101404.63;4950431;29;20143;-76
2021/11/12 01:24:16;;;;;;;12.57;3.25;;;;;;;16.71;63.39;101417.06;4948295;28;20047;-76
2021/11/12 01:26:44;;;;;;;11.57;3.45;;;;;;;16.70;63.29;101409.94;4933791;28;20459;-76
2021/11/12 01:29:12;;;;;;;9.40;2.47;;;;;;;16.72;63.33;101409.97;4964655;28;20406;-74
2021/11/12 01:31:41;;;;;;;12.45;3.65;;;;;;;16.71;63.19;101408.19;4967598;28;20047;-76
2021/11/12 01:34:11;;;;;;;13.90;2.38;;;;;;;16.71;63.21;101413.50;4950933;29;20047;-76
2021/11/12 01:36:42;;;;;;;15.32;2.60;;;;;;;16.70;63.22;101423.28;4951086;28;20047;-76
2021/11/12 01:39:12;;;;;;;11.43;2.60;;;;;;;16.67;63.22;101415.25;4952116;28;20122;-76
2021/11/12 01:41:46;;;;;;;7.03;2.40;;;;;;;16.65;63.15;101406.41;4935613;29;20039;-76
2021/11/12 01:44:13;;;;;;;17.63;3.22;;;;;;;16.59;63.21;101403.69;4953263;28;20714;-75
2021/11/12 01:46:55;;;;;;;8.23;2.63;;;;;;;16.55;63.14;101407.22;4952769;29;20047;-76
2021/11/12 01:49:38;;;;;;;8.77;2.97;;;;;;;16.59;63.04;101409.03;4952733;29;20047;-76
2021/11/12 01:52:12;;;;;;;11.40;3.10;;;;;;;16.58;63.08;101411.69;4957056;28;20051;-75
2021/11/12 01:54:59;;;;;;;16.55;2.88;;;;;;;16.55;63.02;101415.22;4959079;28;20043;-76
2021/11/12 01:57:38;;;;;;;10.57;2.47;;;;;;;16.54;62.85;101408.09;4951656;28;20055;-76
2021/11/12 02:00:11;;;;;;;10.55;2.67;;;;;;;16.55;62.72;101423.22;4934888;29;20376;-76
2021/11/12 02:02:39;;;;;;;9.43;3.08;;;;;;;16.54;62.62;101417.91;4937611;28;20388;-76
2021/11/12 02:05:08;;;;;;;17.23;3.45;;;;;;;16.51;62.63;101407.22;4953866;28;20051;-76
2021/11/12 02:07:37;;;;;;;10.23;2.72;;;;;;;16.51;62.45;101410.78;4952579;28;20043;-76
2021/11/12 02:10:09;;;;;;;13.38;3.00;;;;;;;16.50;62.38;101426.75;4952182;28;20035;-76
2021/11/12 02:12:48;;;;;;;14.55;3.70;;;;;;;16.47;62.46;101424.09;4953070;28;20039;-76
2021/11/12 02:15:16;;;;;;;12.15;2.95;;;;;;;16.42;62.64;101421.41;4953453;29;20121;-75
2021/11/12 02:17:46;;;;;;;9.85;3.40;;;;;;;16.30;62.78;101426.72;4953513;29;20320;-75
2021/11/12 02:20:17;;;;;;;12.88;3.17;;;;;;;16.27;62.95;101424.06;4953729;29;20049;-75
2021/11/12 02:22:52;;;;;;;9.77;2.70;;;;;;;16.27;62.90;101429.38;4952914;28;20054;-76
2021/11/12 02:25:27;;;;;;;10.18;2.63;;;;;;;16.23;63.10;101433.78;4935635;28;20043;-75
2021/11/12 02:27:57;;;;;;;10.15;3.38;;;;;;;16.19;63.00;101428.47;4954939;28;20148;-75
2021/11/12 02:30:27;;;;;;;13.80;3.05;;;;;;;16.15;63.10;101426.66;4964413;28;20756;-76
2021/11/12 02:33:00;;;;;;;8.32;2.58;;;;;;;16.03;63.58;101422.19;4936047;29;20063;-76
2021/11/12 02:35:29;;;;;;;12.88;2.70;;;;;;;16.00;63.58;101424.84;4953364;29;20411;-75
2021/11/12 02:38:01;;;;;;;12.02;2.83;;;;;;;15.98;63.69;101433.72;4951702;28;20039;-76
2021/11/12 02:40:28;;;;;;;8.60;2.50;;;;;;;15.89;64.04;101424.78;4953603;28;20039;-76
2021/11/12 02:42:57;;;;;;;9.60;2.83;;;;;;;15.84;64.29;101420.31;4950887;28;20043;-75
2021/11/12 02:45:25;;;;;;;11.80;2.92;;;;;;;15.82;64.33;101427.41;4951823;29;20077;-76
2021/11/12 02:47:53;;;;;;;13.32;3.00;;;;;;;15.81;64.17;101423.88;4951051;28;20554;-76
2021/11/12 02:50:22;;;;;;;12.73;2.70;;;;;;;15.77;64.31;101419.41;4952979;28;20046;-76
2021/11/12 02:52:54;;;;;;;8.32;3.08;;;;;;;15.73;64.18;101417.63;4951686;28;20495;-75
2021/11/12 02:55:24;;;;;;;12.43;2.80;;;;;;;15.58;64.79;101420.19;4951947;29;20442;-76
2021/11/12 02:57:53;;;;;;;9.60;2.75;;;;;;;15.46;65.32;101422.75;4952686;28;20047;-76
2021/11/12 03:00:22;;;;;;;9.68;2.55;;;;;;;15.40;65.46;101420.94;4934493;29;20118;-75
2021/11/12 03:02:50;;;;;;;11.88;2.90;;;;;;;15.40;65.53;101428.03;4935621;29;20055;-75
2021/11/12 03:05:18;;;;;;;8.90;2.92;;;;;;;15.43;65.10;101428.03;4952696;29;20084;-75
2021/11/12 03:07:45;;;;;;;13.57;3.53;;;;;;;15.44;65.05;101420.06;4950969;29;20509;-75
2021/11/12 03:10:14;;;;;;;8.55;2.50;;;;;;;15.43;64.88;101418.28;4952605;29;20543;-75
2021/11/12 03:12:44;;;;;;;11.05;2.83;;;;;;;15.33;65.31;101416.47;4952718;29;20049;-76
2021/11/12 03:15:12;;;;;;;11.05;2.40;;;;;;;15.29;65.47;101419.09;4951444;29;20047;-76
2021/11/12 03:17:40;;;;;;;13.48;4.95;;;;;;;15.22;65.79;101418.16;4934833;29;20098;-76
2021/11/12 03:20:12;;;;;;;11.45;3.15;;;;;;;15.19;65.89;101415.47;4950671;29;20051;-76
2021/11/12 03:22:42;;;;;;;9.80;2.88;;;;;;;15.18;66.02;101415.47;4952695;29;20047;-76
2021/11/12 03:25:14;;;;;;;10.02;3.10;;;;;;;15.22;65.69;101417.28;4935431;29;20050;-76
2021/11/12 03:27:49;;;;;;;11.15;2.80;;;;;;;15.23;65.70;101422.59;4950115;29;20047;-76
2021/11/12 04:01:31;;;;;;;13.07;3.05;;;;;;;14.87;65.52;101425.84;4951559;29;20039;-76
2021/11/12 04:03:57;;;;;;;11.32;3.22;;;;;;;14.85;65.27;101427.59;4950329;29;20077;-76
2021/11/12 04:20:32;;;;;;;18.98;3.80;;;;;;;14.80;65.02;101434.66;4926593;29;20121;-76
2021/11/12 04:40:24;;;;;;;12.00;3.65;;;;;;;14.51;66.69;101447.63;4949666;29;20043;-75
2021/11/12 05:13:34;;;;;;;11.45;4.28;;;;;;;14.57;67.61;101465.44;4957288;28;20735;-76
2021/11/12 05:43:52;;;;;;;13.85;4.43;;;;;;;15.21;68.08;101480.22;4953171;29;20040;-76
2021/11/12 05:51:57;;;;;;;;;;;;;;;15.67;68.60;101492.13;4952635;29;20050;-76
2021/11/12 05:57:12;;;;;;;8.88;3.00;;;;;;;16.06;68.31;101491.47;4940133;29;20051;-76
2021/11/12 05:59:40;;;;;;;9.95;2.83;;;;;;;16.20;68.20;101496.84;4954458;28;20043;-76
2021/11/12 06:02:08;;;;;;;7.38;2.75;;;;;;;16.30;68.03;101496.88;4952403;29;20130;-76
2021/11/12 06:04:37;;;;;;;11.35;3.60;;;;;;;16.41;67.85;101502.25;4952353;29;20393;-77
2021/11/12 06:07:06;;;;;;;6.95;2.45;;;;;;;16.52;67.89;101500.53;4953561;29;20094;-76
2021/11/12 06:09:34;;;;;;;8.85;2.58;;;;;;;16.66;68.00;101508.59;4952451;29;20439;-77
2021/11/12 06:12:01;;;;;;;10.65;3.40;;;;;;;16.70;67.68;101511.28;4952550;29;20113;-76
2021/11/12 06:14:30;;;;;;;11.50;3.80;;;;;;;16.74;67.41;101513.03;4951804;29;20067;-77
2021/11/12 06:16:58;;;;;;;11.48;3.55;;;;;;;16.81;66.95;101515.72;4955487;28;20101;-76
2021/11/12 06:19:26;;;;;;;8.60;3.08;;;;;;;16.87;66.74;101521.09;4938573;29;20055;-76
2021/11/12 06:21:54;;;;;;;8.27;3.42;;;;;;;16.95;66.70;101516.66;4933329;29;20134;-76
2021/11/12 06:24:22;;;;;;;9.73;3.30;;;;;;;17.05;66.69;101522.00;4953067;29;20047;-76
2021/11/12 06:26:50;;;;;;;13.20;3.10;;;;;;;17.17;66.75;101521.13;4951866;29;20059;-75
2021/11/12 06:29:18;;;;;;;16.77;3.70;;;;;;;17.31;66.80;101524.69;4953199;29;20043;-76
2021/11/12 06:31:48;;;;;;;9.40;3.15;;;;;;;17.47;66.87;101514.88;4951929;29;20043;-76
2021/11/12 06:34:16;;;;;;;10.10;2.63;;;;;;;17.62;66.76;101520.25;4952701;28;20047;-75
2021/11/12 06:36:44;;;;;;;10.65;3.10;;;;;;;17.79;66.23;101520.22;4952791;29;20039;-75
2021/11/12 06:39:13;;;;;;;9.27;2.95;;;;;;;17.90;65.15;101518.44;4951624;29;20051;-72
2021/11/12 06:41:53;;;;;;;9.55;2.70;;;;;;;18.04;65.04;101521.09;4951734;29;20123;-72
2021/11/12 06:44:38;;;;;;;14.52;2.80;;;;;;;18.15;64.85;101517.47;4945143;29;20043;-74
2021/11/12 06:49:56;;;;;;;13.07;3.67;;;;;;;18.47;63.98;101519.13;4965186;28;20407;-74
2021/11/12 06:52:26;;;;;;;10.70;4.10;;;;;;;18.62;63.34;101524.44;4933268;29;20126;-75
2021/11/12 06:54:55;;;;;;;10.90;3.70;;;;;;;18.76;63.08;101519.91;4952762;29;20307;-75
2021/11/12 06:57:23;;;;;;;11.25;4.82;;;;;;;18.94;62.65;101521.56;4942838;29;20122;-76
2021/11/12 06:59:52;;;;;;;13.98;6.03;;;;;;;19.08;61.10;101515.25;4941979;29;21445;-74
2021/11/12 07:02:24;;;;;;;9.93;4.78;;;;;;;19.22;60.25;101514.25;4948682;29;20075;-75
2021/11/12 07:04:52;;;;;;;18.13;7.63;;;;;;;19.33;59.01;101518.59;4950857;29;20059;-74
2021/11/12 07:07:20;;;;;;;19.17;9.18;;;;;;;19.45;58.67;101517.59;4952074;28;20407;-74
2021/11/12 07:09:50;;;;;;;13.07;4.90;;;;;;;19.64;59.13;101519.25;4964496;28;20043;-75
2021/11/12 07:12:18;;;;;;;13.38;5.40;;;;;;;19.82;58.76;101516.38;4950903;29;20403;-75
2021/11/12 07:14:46;;;;;;;19.35;5.63;;;;;;;19.88;57.75;101516.34;4951971;28;20491;-75
2021/11/12 07:17:15;;;;;;;12.05;4.75;;;;;;;19.86;57.91;101514.56;4951977;29;20107;-74
2021/11/12 07:19:45;;;;;;;16.30;5.15;;;;;;;19.84;57.52;101514.56;4951999;29;20054;-74
2021/11/12 07:22:13;;;;;;;13.63;4.60;;;;;;;19.96;57.58;101518.91;4951418;29;20047;-75
2021/11/12 07:24:41;;;;;;;20.98;7.53;;;;;;;19.99;57.73;101520.69;4958259;28;20051;-75
2021/11/12 07:27:09;;;;;;;16.02;6.43;;;;;;;19.88;57.68;101510.97;4950708;28;20118;-76
2021/11/12 07:29:39;;;;;;;19.48;8.93;;;;;;;19.82;57.92;101515.53;4966270;28;20049;-77
2021/11/12 07:32:08;;;;;;;17.27;5.53;;;;;;;19.72;58.24;101512.03;4969573;28;20059;-77
2021/11/12 07:34:36;;;;;;;13.82;4.47;;;;;;;19.65;58.52;101510.31;4965209;28;20043;-77
2021/11/12 07:37:09;;;;;;;15.73;5.10;;;;;;;19.61;58.39;101511.25;4960699;28;20406;-77
2021/11/12 07:39:47;;;;;;;11.40;4.47;;;;;;;19.55;58.48;101507.75;4951276;28;20063;-77
2021/11/12 07:42:25;;;;;;;10.07;4.30;;;;;;;19.53;58.40;101507.75;4949642;29;20051;-76
2021/11/12 07:45:05;;;;;;;12.98;3.83;;;;;;;19.50;58.26;101505.09;4932909;29;20476;-78
2021/11/12 07:47:33;;;;;;;17.15;5.70;;;;;;;19.49;58.10;101508.69;4941812;28;20234;-75
2021/11/12 07:50:03;;;;;;;17.90;5.13;;;;;;;19.49;58.00;101498.84;4943653;29;20050;-76
2021/11/12 07:52:35;;;;;;;15.95;5.30;;;;;;;19.60;58.08;101503.22;4951501;29;20098;-73
2021/11/12 07:55:04;;;;;;;17.73;4.63;;;;;;;19.65;57.81;101510.31;4952468;29;22301;-90
2021/11/12 12:12:00;;;;;;;12.38;4.80;;;;;;;19.89;53.75;101373.38;5081578;27;20430;-78
2021/11/12 12:14:31;;;;;;;12.15;3.83;;;;;;;20.07;54.43;101366.00;5066742;28;20044;-78
2021/11/12 12:17:10;;;;;;;14.52;4.95;;;;;;;20.25;54.83;101376.47;5046354;28;20064;-76
2021/11/12 12:19:43;;;;;;;8.75;4.63;;;;;;;20.37;54.87;101378.13;5018513;28;20131;-76
2021/11/12 12:34:59;;;;;;;12.27;4.68;;;;;;;20.62;54.38;101377.72;5064792;28;20043;-77
2021/11/12 13:23:08;;;;;;;9.30;5.05;;;;;;;20.48;54.74;101392.28;4949350;28;20039;-76
2021/11/12 13:25:39;;;;;;;10.20;4.60;;;;;;;20.42;54.54;101389.66;5046623;28;20060;-76
2021/11/12 13:28:20;;;;;;;13.77;4.47;;;;;;;20.40;54.86;101399.53;5031611;28;20037;-74
2021/11/12 13:30:53;;;;;;;12.40;4.63;;;;;;;20.35;54.74;101399.59;5032695;28;20535;-75
2021/11/12 13:33:44;;;;;;;11.93;5.32;;;;;;;20.31;55.02;101397.84;5049681;28;20044;-75
2021/11/12 13:36:22;;;;;;;10.93;4.97;;;;;;;20.25;54.85;101397.91;5031071;28;20045;-76
2021/11/12 13:38:54;;;;;;;12.70;5.72;;;;;;;20.19;55.36;101406.94;5035344;28;20056;-75
2021/11/12 13:41:25;;;;;;;12.80;5.10;;;;;;;20.15;55.53;101404.34;5034456;28;20038;-74
2021/11/12 13:44:01;;;;;;;13.20;5.70;;;;;;;20.10;55.84;101401.69;5031688;28;20030;-73
2021/11/12 13:46:29;;;;;;;18.90;5.78;;;;;;;20.07;55.94;101408.91;5031140;28;20717;-74
2021/11/12 13:48:58;;;;;;;14.90;5.03;;;;;;;20.07;56.09;101403.53;5030763;28;20111;-74
2021/11/12 13:51:28;;;;;;;16.27;6.57;;;;;;;20.03;56.52;101401.78;5031260;28;20129;-74
2021/11/12 13:53:57;;;;;;;12.48;5.55;;;;;;;19.97;56.68;101407.22;5031461;28;20378;-74
2021/11/12 13:56:25;;;;;;;12.60;5.85;;;;;;;19.90;56.67;101411.78;5044185;28;20144;-73
2021/11/12 13:59:05;;;;;;;13.10;6.50;;;;;;;19.87;57.24;101404.69;5030483;28;20041;-74
2021/11/12 14:01:33;;;;;;;11.30;5.32;;;;;;;19.85;57.37;101406.47;5030839;28;20042;-75
2021/11/12 14:04:03;;;;;;;11.63;5.03;;;;;;;19.85;57.36;101413.63;5024743;28;20049;-74
2021/11/12 14:06:35;;;;;;;10.80;5.18;;;;;;;19.84;57.59;101412.75;5030283;28;20045;-76
2021/11/12 14:09:04;;;;;;;11.65;4.50;;;;;;;19.77;57.74;101405.69;5030354;28;20436;-76
2021/11/12 14:11:34;;;;;;;17.55;5.75;;;;;;;19.73;57.55;101413.78;5029847;28;20048;-76
2021/11/12 14:14:06;;;;;;;17.80;5.65;;;;;;;19.72;57.80;101407.53;5027081;28;20053;-75
2021/11/12 14:16:37;;;;;;;12.98;5.95;;;;;;;19.73;57.66;101409.31;5030219;28;20069;-74
2021/11/12 14:19:26;;;;;;;14.45;6.00;;;;;;;19.76;57.72;101411.94;5030347;28;20041;-71
2021/11/12 14:21:56;;;;;;;15.93;5.40;;;;;;;19.76;57.75;101419.09;5013257;28;20049;-73
2021/11/12 14:27:20;;;;;;;13.57;5.13;;;;;;;19.73;57.96;101420.03;5029070;28;20040;-76
2021/11/12 14:32:55;;;;;;;14.60;5.72;;;;;;;19.70;57.88;101420.06;5026830;28;20562;-71
2021/11/12 14:35:38;;;;;;;16.33;5.30;;;;;;;19.70;58.23;101417.38;5030796;28;20124;-70
2021/11/12 14:49:52;;;;;;;11.75;5.97;;;;;;;19.61;58.79;101436.25;4946902;28;20043;-67
2021/11/12 14:52:24;;;;;;;12.27;5.68;;;;;;;19.60;59.08;101434.47;4952818;29;20035;-67
2021/11/12 14:55:03;;;;;;;13.65;5.93;;;;;;;19.61;58.98;101440.72;4935239;29;20044;-67
2021/11/12 14:57:34;;;;;;;14.80;5.45;;;;;;;19.52;59.40;101436.34;4937194;29;20051;-67
2021/11/12 15:00:11;;;;;;;16.17;6.50;;;;;;;19.46;59.80;101436.41;4952810;29;20059;-67
2021/11/12 15:02:40;;;;;;;14.32;6.32;;;;;;;19.39;60.33;101437.31;4934362;29;20459;-68
2021/11/12 15:05:12;;;;;;;12.93;5.93;;;;;;;19.33;60.29;101445.41;4935233;29;20499;-66
2021/11/12 15:07:43;;;;;;;14.40;6.18;;;;;;;19.26;60.86;101449.06;4964690;28;20479;-68
2021/11/12 15:10:14;;;;;;;12.05;5.95;;;;;;;19.18;61.05;101451.78;4953022;29;20130;-67
2021/11/12 15:12:47;;;;;;;12.32;6.32;;;;;;;19.15;61.09;101450.94;4952469;28;20066;-67
2021/11/12 15:15:15;;;;;;;15.88;7.28;;;;;;;19.09;61.09;101447.44;4952719;28;20040;-68
2021/11/12 15:17:43;;;;;;;13.90;5.90;;;;;;;19.08;60.83;101451.00;4951745;29;20087;-67
2021/11/12 15:20:12;;;;;;;15.27;6.25;;;;;;;19.08;61.10;101453.66;4934054;29;20043;-68
2021/11/12 15:22:50;;;;;;;14.27;7.22;;;;;;;19.02;61.33;101452.84;4952407;29;20099;-68
2021/11/12 15:25:22;;;;;;;12.10;5.57;;;;;;;18.86;61.78;101462.75;4939024;28;20042;-68
2021/11/12 15:27:56;;;;;;;14.18;5.68;;;;;;;18.77;62.27;101464.63;4971351;28;20049;-67
2021/11/12 15:30:26;;;;;;;14.02;5.60;;;;;;;18.65;62.92;101466.47;4971763;28;20520;-68
2021/11/12 15:32:56;;;;;;;17.80;8.15;;;;;;;18.57;63.01;101470.09;4957149;28;20122;-67
2021/11/12 15:35:25;;;;;;;14.20;6.53;;;;;;;18.54;63.01;101468.28;4955032;28;20424;-67
2021/11/12 15:37:59;;;;;;;20.33;10.68;;;;;;;18.56;62.68;101471.00;4935754;29;20043;-67
2021/11/12 15:40:30;;;;;;;12.18;5.82;;;;;;;18.55;62.74;101475.44;4958335;28;20434;-67
2021/11/12 15:46:08;;;;;;;13.70;5.95;;;;;;;18.48;62.83;101481.69;4952872;28;20102;-67
2021/11/12 15:48:38;;;;;;;12.57;4.85;;;;;;;18.40;63.33;101491.53;4949688;29;20044;-68
2021/11/12 15:53:58;;;;;;;14.48;6.07;;;;;;;18.34;63.56;101488.88;4922282;29;20039;-68
2021/11/12 15:59:21;;;;;;;16.40;6.63;;;;;;;18.36;63.29;101497.78;4913105;29;20039;-67
2021/11/12 16:02:14;;;;;;;15.35;6.30;;;;;;;18.42;63.22;101504.91;4953244;28;20055;-67
2021/11/12 16:05:00;;;;;;;17.20;7.07;;;;;;;18.44;63.12;101505.78;4933975;29;20043;-67
2021/11/12 16:12:58;;;;;;;14.70;4.97;;;;;;;18.40;63.11;101509.34;4943205;29;20047;-67
2021/11/12 16:15:40;;;;;;;12.95;5.18;;;;;;;18.38;63.06;101505.81;4950294;29;20126;-67
2021/11/12 16:26:32;;;;;;;10.38;5.30;;;;;;;18.34;63.29;101518.28;4942841;28;20127;-68
2021/11/12 16:29:13;;;;;;;11.88;5.30;;;;;;;18.31;63.27;101521.00;4950063;29;20491;-68
2021/11/12 16:31:43;;;;;;;12.05;5.50;;;;;;;18.31;63.38;101523.66;4943998;29;20473;-68
2021/11/12 16:34:13;;;;;;;16.17;6.47;;;;;;;18.35;63.44;101519.19;4944008;28;20039;-68
2021/11/12 16:36:45;;;;;;;11.05;5.78;;;;;;;18.33;63.40;101521.84;4945306;28;20043;-68
2021/11/12 16:39:15;;;;;;;14.60;6.53;;;;;;;18.33;63.28;101522.75;4931927;29;20059;-68
2021/11/12 16:41:53;;;;;;;16.63;6.03;;;;;;;18.33;63.38;101520.06;4947736;29;20066;-68
2021/11/12 16:44:27;;;;;;;12.27;5.30;;;;;;;18.32;63.38;101523.63;4961552;28;20047;-67
2021/11/12 16:49:42;;;;;;;13.52;5.55;;;;;;;18.22;63.58;101526.38;4949783;28;20326;-68
2021/11/12 16:52:18;;;;;;;9.48;5.95;;;;;;;18.19;63.50;101521.91;4951856;29;20036;-68
2021/11/12 16:54:57;;;;;;;14.00;6.82;;;;;;;18.20;63.48;101525.47;4943359;28;20051;-67
2021/11/12 16:57:47;;;;;;;18.05;6.22;;;;;;;18.18;63.65;101522.78;4947778;28;20094;-67
2021/11/12 17:03:04;;;;;;;13.23;5.78;;;;;;;18.14;63.56;101537.06;4962058;28;20047;-67
2021/11/12 17:05:36;;;;;;;14.80;5.82;;;;;;;18.14;63.59;101534.41;4953060;29;20052;-67
2021/11/12 17:11:03;;;;;;;15.98;6.60;;;;;;;18.09;63.62;101548.66;4945698;28;20059;-67
2021/11/12 17:46:59;;;;;;;;;;;;;;;17.87;64.34;101562.06;4937299;29;20079;-67
2021/11/12 18:03:15;;;;;;;16.73;7.55;;;;;;;17.71;64.78;101568.34;4944158;29;20070;-66
2021/11/12 18:05:45;;;;;;;18.77;7.57;;;;;;;17.72;64.65;101569.22;4951103;28;20047;-66
2021/11/12 18:22:20;;;;;;;15.65;7.72;;;;;;;17.53;65.23;101579.84;4954012;29;20098;-66
2021/11/12 21:44:16;;;;;;;12.73;7.50;;;;;;;16.39;67.90;101567.09;5089865;28;20067;-65
2021/11/12 21:46:44;;;;;;;13.73;6.18;;;;;;;16.38;67.91;101565.31;5090773;28;20411;-64
2021/11/12 21:49:15;;;;;;;13.05;6.88;;;;;;;16.36;67.89;101570.63;5089437;28;20048;-64
2021/11/12 21:51:45;;;;;;;10.20;6.03;;;;;;;16.37;68.15;101571.53;5068678;28;20507;-65
2021/11/12 21:54:14;;;;;;;13.45;6.65;;;;;;;16.36;68.04;101573.28;5089757;28;20044;-64
2021/11/12 21:56:42;;;;;;;11.60;6.45;;;;;;;16.39;68.22;101567.09;5089569;28;20566;-64
2021/11/12 21:59:10;;;;;;;12.20;7.20;;;;;;;16.38;68.12;101566.22;5089449;28;20515;-67
2021/11/12 22:01:39;;;;;;;9.82;6.45;;;;;;;16.39;67.97;101569.78;5088651;28;20408;-64
2021/11/12 22:04:08;;;;;;;17.70;6.97;;;;;;;16.40;67.88;101575.13;5087670;28;20061;-65
2021/11/12 22:06:37;;;;;;;8.90;5.60;;;;;;;16.38;67.91;101570.66;5089565;28;20451;-64
2021/11/12 22:09:07;;;;;;;12.30;6.20;;;;;;;16.32;67.89;101574.19;5091155;28;20036;-64
2021/11/12 22:11:36;;;;;;;10.57;6.40;;;;;;;16.29;67.90;101572.38;5090593;28;20036;-64
2021/11/12 22:14:06;;;;;;;12.27;6.43;;;;;;;16.27;67.86;101570.59;5085080;28;20036;-64
2021/11/12 22:16:35;;;;;;;15.43;8.15;;;;;;;16.25;68.21;101567.03;5089716;28;20044;-64
2021/11/12 22:19:05;;;;;;;14.13;6.93;;;;;;;16.22;68.35;101565.22;5090361;28;20503;-67
2021/11/12 22:21:33;;;;;;;12.70;6.57;;;;;;;16.20;68.70;101568.78;5088922;28;20121;-67
2021/11/12 22:24:01;;;;;;;12.63;7.22;;;;;;;16.17;68.50;101574.09;5089732;28;20488;-67
2021/11/12 22:26:31;;;;;;;14.40;7.60;;;;;;;16.16;68.51;101578.50;5073915;28;20428;-67
2021/11/12 22:28:59;;;;;;;12.88;6.50;;;;;;;16.16;68.53;101572.28;5072055;28;20495;-67
2021/11/12 22:31:28;;;;;;;15.68;7.10;;;;;;;16.14;68.37;101574.09;5089406;28;20117;-67
2021/11/12 22:33:57;;;;;;;18.23;7.03;;;;;;;16.13;68.50;101572.28;5089888;28;20403;-67
2021/11/12 22:36:24;;;;;;;13.48;7.38;;;;;;;16.11;68.47;101574.06;5089593;28;20058;-65
2021/11/12 22:38:52;;;;;;;13.05;6.90;;;;;;;16.07;68.37;101578.47;5089558;28;20032;-65
2021/11/12 22:41:20;;;;;;;13.55;7.30;;;;;;;16.05;68.31;101587.34;5088385;28;20109;-64
2021/11/12 22:43:58;;;;;;;12.70;5.95;;;;;;;16.02;68.44;101579.31;5099162;28;20043;-65
2021/11/12 22:46:27;;;;;;;12.32;6.47;;;;;;;15.98;68.57;101578.41;5088492;28;20093;-65
2021/11/12 22:48:55;;;;;;;10.90;6.88;;;;;;;15.97;68.71;101578.41;5087464;28;20395;-65
2021/11/12 22:51:23;;;;;;;13.32;6.50;;;;;;;15.94;68.75;101579.28;5085407;28;20119;-65
2021/11/12 22:53:51;;;;;;;14.73;7.05;;;;;;;15.93;68.74;101581.06;5087870;28;20058;-65
2021/11/12 22:56:18;;;;;;;15.65;7.10;;;;;;;15.93;68.75;101575.72;5089674;28;20040;-65
2021/11/12 22:58:46;;;;;;;14.35;7.18;;;;;;;15.92;69.01;101581.03;5089475;28;20089;-65
2021/11/12 23:01:19;;;;;;;12.23;7.63;;;;;;;15.93;68.80;101575.72;5089558;28;20590;-65
2021/11/12 23:03:47;;;;;;;14.15;7.50;;;;;;;15.92;68.72;101583.69;5088556;28;20048;-65
2021/11/12 23:06:16;;;;;;;13.05;6.57;;;;;;;15.89;68.77;101581.91;5087969;28;20685;-65
2021/11/12 23:08:44;;;;;;;13.75;6.05;;;;;;;15.88;68.83;101580.09;5088313;28;20438;-65
2021/11/12 23:11:17;;;;;;;13.65;7.53;;;;;;;15.88;68.76;101580.09;5089148;28;20044;-65
2021/11/12 23:13:45;;;;;;;12.32;7.82;;;;;;;15.88;68.79;101577.44;5087545;28;20505;-65
2021/11/12 23:16:14;;;;;;;13.27;6.68;;;;;;;15.86;68.79;101578.34;5089279;28;20043;-65
2021/11/12 23:18:48;;;;;;;14.40;7.20;;;;;;;15.83;68.88;101579.19;5087045;28;20039;-65
2021/11/12 23:21:16;;;;;;;11.43;6.28;;;;;;;15.79;69.13;101576.50;5088715;28;20036;-65
2021/11/12 23:23:48;;;;;;;14.88;6.95;;;;;;;15.77;69.10;101579.16;5089201;28;20094;-65
2021/11/12 23:26:16;;;;;;;16.15;7.78;;;;;;;15.75;69.03;101577.38;5087876;28;20109;-65
2021/11/12 23:28:44;;;;;;;12.05;6.40;;;;;;;15.72;69.28;101591.53;5087721;28;20063;-65
2021/11/12 23:31:12;;;;;;;10.13;6.38;;;;;;;15.69;69.12;101588.84;5087151;28;20044;-65
2021/11/12 23:33:42;;;;;;;12.63;6.85;;;;;;;15.68;69.33;101591.50;5088426;28;20036;-65
2021/11/12 23:36:12;;;;;;;13.27;6.93;;;;;;;15.64;69.42;101587.03;5087164;28;20170;-65
2021/11/12 23:38:40;;;;;;;13.57;7.30;;;;;;;15.60;69.58;101582.56;5088580;28;20558;-65
2021/11/12 23:41:08;;;;;;;12.27;6.80;;;;;;;15.58;69.70;101585.22;5089050;28;20048;-65
2021/11/12 23:43:35;;;;;;;10.48;6.93;;;;;;;15.58;69.70;101582.56;5089476;28;20040;-67
2021/11/12 23:46:05;;;;;;;10.70;7.40;;;;;;;15.57;69.64;101588.75;5092618;28;20433;-67
2021/11/12 23:48:33;;;;;;;15.82;6.70;;;;;;;15.56;69.78;101589.63;5087230;28;20059;-67
2021/11/12 23:51:00;;;;;;;14.63;7.57;;;;;;;15.53;69.81;101584.28;5107236;28;20444;-68
2021/11/12 23:53:30;;;;;;;15.05;6.00;;;;;;;15.51;70.01;101586.88;5090973;28;20040;-68
2021/11/12 23:55:58;;;;;;;14.40;6.60;;;;;;;15.49;70.17;101582.47;5077819;28;20044;-67
2021/11/12 23:58:27;;;;;;;14.98;7.13;;;;;;;15.49;70.21;101587.78;5080344;27;20060;-67
